sensor_id;sensor_type;location;lat;lon;timestamp;P1;durP1;ratioP1;P2;durP2;ratioP2
69912;SDS011;57198;52.082;5.108;2023-04-03T00:00:30;2.38;;;1.65;;
69912;SDS011;57198;52.082;5.108;2023-04-03T00:02:57;3.65;;;1.70;;
69912;SDS011;57198;52.082;5.108;2023-04-03T00:05:25;2.38;;;2.20;;
69912;SDS011;57198;52.082;5.108;2023-04-03T00:07:52;3.30;;;1.83;;
69912;SDS011;57198;52.082;5.108;2023-04-03T00:10:19;1.95;;;1.65;;
69912;SDS011;57198;52.082;5.108;2023-04-03T00:12:47;2.55;;;2.22;;
69912;SDS011;57198;52.082;5.108;2023-04-03T00:15:14;3.83;;;1.92;;
69912;SDS011;57198;52.082;5.108;2023-04-03T00:17:42;3.33;;;2.20;;
69912;SDS011;57198;52.082;5.108;2023-04-03T00:20:09;1.90;;;1.57;;
69912;SDS011;57198;52.082;5.108;2023-04-03T00:22:36;2.78;;;1.98;;
69912;SDS011;57198;52.082;5.108;2023-04-03T00:25:04;3.58;;;2.25;;
69912;SDS011;57198;52.082;5.108;2023-04-03T00:27:31;4.90;;;2.17;;
69912;SDS011;57198;52.082;5.108;2023-04-03T00:29:58;2.00;;;1.80;;
69912;SDS011;57198;52.082;5.108;2023-04-03T00:32:27;1.83;;;1.50;;
69912;SDS011;57198;52.082;5.108;2023-04-03T00:34:54;2.78;;;1.98;;
69912;SDS011;57198;52.082;5.108;2023-04-03T00:37:21;2.72;;;2.40;;
69912;SDS011;57198;52.082;5.108;2023-04-03T00:39:49;1.90;;;1.73;;
69912;SDS011;57198;52.082;5.108;2023-04-03T00:42:16;2.60;;;2.22;;
69912;SDS011;57198;52.082;5.108;2023-04-03T00:47:11;5.00;;;2.05;;
69912;SDS011;57198;52.082;5.108;2023-04-03T00:49:40;2.33;;;2.15;;
69912;SDS011;57198;52.082;5.108;2023-04-03T00:52:10;2.25;;;1.83;;
69912;SDS011;57198;52.082;5.108;2023-04-03T00:54:38;3.72;;;2.10;;
69912;SDS011;57198;52.082;5.108;2023-04-03T00:57:08;1.90;;;1.67;;
69912;SDS011;57198;52.082;5.108;2023-04-03T00:59:36;2.55;;;1.90;;
69912;SDS011;57198;52.082;5.108;2023-04-03T01:02:06;2.60;;;1.95;;
69912;SDS011;57198;52.082;5.108;2023-04-03T01:04:34;3.10;;;2.40;;
69912;SDS011;57198;52.082;5.108;2023-04-03T01:07:07;2.53;;;2.33;;
69912;SDS011;57198;52.082;5.108;2023-04-03T01:09:36;2.10;;;1.87;;
69912;SDS011;57198;52.082;5.108;2023-04-03T01:14:43;2.97;;;2.38;;
69912;SDS011;57198;52.082;5.108;2023-04-03T01:17:25;3.38;;;1.80;;
69912;SDS011;57198;52.082;5.108;2023-04-03T01:19:57;2.30;;;2.13;;
69912;SDS011;57198;52.082;5.108;2023-04-03T01:22:29;1.83;;;1.50;;
69912;SDS011;57198;52.082;5.108;2023-04-03T01:24:58;3.25;;;2.00;;
69912;SDS011;57198;52.082;5.108;2023-04-03T01:27:25;3.22;;;2.10;;
69912;SDS011;57198;52.082;5.108;2023-04-03T01:29:55;2.58;;;1.95;;
69912;SDS011;57198;52.082;5.108;2023-04-03T01:32:23;1.92;;;1.48;;
69912;SDS011;57198;52.082;5.108;2023-04-03T01:34:50;2.17;;;1.97;;
69912;SDS011;57198;52.082;5.108;2023-04-03T01:37:17;2.67;;;1.67;;
69912;SDS011;57198;52.082;5.108;2023-04-03T01:39:46;2.45;;;2.10;;
69912;SDS011;57198;52.082;5.108;2023-04-03T01:42:13;2.75;;;2.00;;
69912;SDS011;57198;52.082;5.108;2023-04-03T01:44:43;3.05;;;2.53;;
69912;SDS011;57198;52.082;5.108;2023-04-03T01:47:11;2.77;;;1.70;;
69912;SDS011;57198;52.082;5.108;2023-04-03T01:49:39;3.78;;;2.30;;
69912;SDS011;57198;52.082;5.108;2023-04-03T01:52:07;2.03;;;1.88;;
69912;SDS011;57198;52.082;5.108;2023-04-03T01:54:34;2.78;;;1.70;;
69912;SDS011;57198;52.082;5.108;2023-04-03T01:57:01;2.50;;;2.30;;
69912;SDS011;57198;52.082;5.108;2023-04-03T01:59:29;2.53;;;1.70;;
69912;SDS011;57198;52.082;5.108;2023-04-03T02:01:56;2.28;;;1.95;;
69912;SDS011;57198;52.082;5.108;2023-04-03T02:04:24;2.20;;;2.00;;
69912;SDS011;57198;52.082;5.108;2023-04-03T02:06:51;2.03;;;1.92;;
69912;SDS011;57198;52.082;5.108;2023-04-03T02:09:18;2.42;;;2.22;;
69912;SDS011;57198;52.082;5.108;2023-04-03T02:11:46;3.63;;;1.93;;
69912;SDS011;57198;52.082;5.108;2023-04-03T02:14:13;3.25;;;2.08;;
69912;SDS011;57198;52.082;5.108;2023-04-03T02:16:40;4.57;;;2.13;;
69912;SDS011;57198;52.082;5.108;2023-04-03T02:19:08;2.22;;;2.00;;
69912;SDS011;57198;52.082;5.108;2023-04-03T02:21:35;3.55;;;2.13;;
69912;SDS011;57198;52.082;5.108;2023-04-03T02:24:03;2.20;;;2.00;;
69912;SDS011;57198;52.082;5.108;2023-04-03T02:26:30;2.78;;;1.70;;
69912;SDS011;57198;52.082;5.108;2023-04-03T02:28:57;3.00;;;2.10;;
69912;SDS011;57198;52.082;5.108;2023-04-03T02:31:25;3.13;;;2.10;;
69912;SDS011;57198;52.082;5.108;2023-04-03T02:33:52;2.15;;;1.70;;
69912;SDS011;57198;52.082;5.108;2023-04-03T02:36:20;4.03;;;2.40;;
69912;SDS011;57198;52.082;5.108;2023-04-03T02:38:52;2.47;;;2.10;;
69912;SDS011;57198;52.082;5.108;2023-04-03T02:41:19;2.75;;;2.20;;
69912;SDS011;57198;52.082;5.108;2023-04-03T02:43:49;2.42;;;2.33;;
69912;SDS011;57198;52.082;5.108;2023-04-03T02:46:16;2.85;;;2.55;;
69912;SDS011;57198;52.082;5.108;2023-04-03T02:48:44;3.07;;;2.23;;
69912;SDS011;57198;52.082;5.108;2023-04-03T02:51:11;2.63;;;2.42;;
69912;SDS011;57198;52.082;5.108;2023-04-03T02:53:39;2.67;;;2.47;;
69912;SDS011;57198;52.082;5.108;2023-04-03T02:56:12;3.75;;;2.20;;
69912;SDS011;57198;52.082;5.108;2023-04-03T02:58:39;2.83;;;2.63;;
69912;SDS011;57198;52.082;5.108;2023-04-03T03:01:07;3.67;;;2.20;;
69912;SDS011;57198;52.082;5.108;2023-04-03T03:03:35;2.53;;;2.33;;
69912;SDS011;57198;52.082;5.108;2023-04-03T03:06:12;4.00;;;2.47;;
69912;SDS011;57198;52.082;5.108;2023-04-03T03:08:40;2.67;;;1.42;;
69912;SDS011;57198;52.082;5.108;2023-04-03T03:11:07;3.47;;;2.42;;
69912;SDS011;57198;52.082;5.108;2023-04-03T03:13:35;5.07;;;2.13;;
69912;SDS011;57198;52.082;5.108;2023-04-03T03:16:02;4.03;;;2.10;;
69912;SDS011;57198;52.082;5.108;2023-04-03T03:18:29;3.45;;;2.10;;
69912;SDS011;57198;52.082;5.108;2023-04-03T03:20:57;3.30;;;2.17;;
69912;SDS011;57198;52.082;5.108;2023-04-03T03:23:25;4.43;;;2.72;;
69912;SDS011;57198;52.082;5.108;2023-04-03T03:25:57;2.63;;;2.10;;
69912;SDS011;57198;52.082;5.108;2023-04-03T03:28:24;3.63;;;2.38;;
69912;SDS011;57198;52.082;5.108;2023-04-03T03:30:52;2.75;;;2.17;;
69912;SDS011;57198;52.082;5.108;2023-04-03T03:33:20;5.63;;;2.03;;
69912;SDS011;57198;52.082;5.108;2023-04-03T03:35:47;2.80;;;2.40;;
69912;SDS011;57198;52.082;5.108;2023-04-03T03:38:14;6.07;;;2.30;;
69912;SDS011;57198;52.082;5.108;2023-04-03T03:40:42;2.95;;;2.15;;
69912;SDS011;57198;52.082;5.108;2023-04-03T03:43:09;2.72;;;2.53;;
69912;SDS011;57198;52.082;5.108;2023-04-03T03:45:37;3.40;;;2.35;;
69912;SDS011;57198;52.082;5.108;2023-04-03T03:48:04;3.30;;;2.60;;
69912;SDS011;57198;52.082;5.108;2023-04-03T03:50:32;4.70;;;2.17;;
69912;SDS011;57198;52.082;5.108;2023-04-03T03:52:59;2.80;;;2.30;;
69912;SDS011;57198;52.082;5.108;2023-04-03T03:55:27;3.80;;;3.20;;
69912;SDS011;57198;52.082;5.108;2023-04-03T03:57:56;3.58;;;2.28;;
69912;SDS011;57198;52.082;5.108;2023-04-03T04:00:25;3.42;;;2.30;;
69912;SDS011;57198;52.082;5.108;2023-04-03T04:02:54;3.57;;;2.20;;
69912;SDS011;57198;52.082;5.108;2023-04-03T04:05:25;3.80;;;2.40;;
69912;SDS011;57198;52.082;5.108;2023-04-03T04:07:53;4.10;;;2.42;;
69912;SDS011;57198;52.082;5.108;2023-04-03T04:10:21;3.85;;;2.70;;
69912;SDS011;57198;52.082;5.108;2023-04-03T04:12:49;3.55;;;2.25;;
69912;SDS011;57198;52.082;5.108;2023-04-03T04:15:21;4.07;;;2.20;;
69912;SDS011;57198;52.082;5.108;2023-04-03T04:17:49;5.43;;;2.67;;
69912;SDS011;57198;52.082;5.108;2023-04-03T04:20:17;3.25;;;2.72;;
69912;SDS011;57198;52.082;5.108;2023-04-03T04:22:45;2.50;;;2.30;;
69912;SDS011;57198;52.082;5.108;2023-04-03T04:25:13;2.58;;;2.35;;
69912;SDS011;57198;52.082;5.108;2023-04-03T04:27:41;2.63;;;2.43;;
69912;SDS011;57198;52.082;5.108;2023-04-03T04:30:09;4.18;;;2.70;;
69912;SDS011;57198;52.082;5.108;2023-04-03T04:32:37;4.57;;;2.40;;
69912;SDS011;57198;52.082;5.108;2023-04-03T04:35:04;3.67;;;2.35;;
69912;SDS011;57198;52.082;5.108;2023-04-03T04:37:35;2.90;;;2.53;;
69912;SDS011;57198;52.082;5.108;2023-04-03T04:40:03;3.03;;;2.10;;
69912;SDS011;57198;52.082;5.108;2023-04-03T04:42:30;3.67;;;2.70;;
69912;SDS011;57198;52.082;5.108;2023-04-03T04:44:57;6.40;;;2.58;;
69912;SDS011;57198;52.082;5.108;2023-04-03T04:47:25;3.20;;;2.35;;
69912;SDS011;57198;52.082;5.108;2023-04-03T04:49:52;4.10;;;2.60;;
69912;SDS011;57198;52.082;5.108;2023-04-03T04:52:20;4.73;;;2.93;;
69912;SDS011;57198;52.082;5.108;2023-04-03T04:54:48;4.63;;;2.72;;
69912;SDS011;57198;52.082;5.108;2023-04-03T04:57:16;3.15;;;2.85;;
69912;SDS011;57198;52.082;5.108;2023-04-03T04:59:44;3.22;;;2.40;;
69912;SDS011;57198;52.082;5.108;2023-04-03T05:02:11;4.28;;;2.60;;
69912;SDS011;57198;52.082;5.108;2023-04-03T05:04:41;4.77;;;2.60;;
69912;SDS011;57198;52.082;5.108;2023-04-03T05:07:14;3.10;;;2.30;;
69912;SDS011;57198;52.082;5.108;2023-04-03T05:09:43;4.35;;;2.70;;
69912;SDS011;57198;52.082;5.108;2023-04-03T05:12:12;3.95;;;2.38;;
69912;SDS011;57198;52.082;5.108;2023-04-03T05:14:46;5.13;;;3.20;;
69912;SDS011;57198;52.082;5.108;2023-04-03T05:17:13;4.20;;;2.90;;
69912;SDS011;57198;52.082;5.108;2023-04-03T05:19:47;4.90;;;3.05;;
69912;SDS011;57198;52.082;5.108;2023-04-03T05:22:15;5.70;;;3.35;;
69912;SDS011;57198;52.082;5.108;2023-04-03T05:24:43;4.80;;;4.07;;
69912;SDS011;57198;52.082;5.108;2023-04-03T05:27:11;3.72;;;3.03;;
69912;SDS011;57198;52.082;5.108;2023-04-03T05:29:42;4.90;;;2.23;;
69912;SDS011;57198;52.082;5.108;2023-04-03T05:32:14;4.65;;;3.45;;
69912;SDS011;57198;52.082;5.108;2023-04-03T05:34:42;5.43;;;3.33;;
69912;SDS011;57198;52.082;5.108;2023-04-03T05:37:09;5.00;;;2.67;;
69912;SDS011;57198;52.082;5.108;2023-04-03T05:39:37;4.03;;;3.33;;
69912;SDS011;57198;52.082;5.108;2023-04-03T05:42:08;3.07;;;2.77;;
69912;SDS011;57198;52.082;5.108;2023-04-03T05:44:35;4.75;;;2.80;;
69912;SDS011;57198;52.082;5.108;2023-04-03T05:47:03;3.55;;;2.75;;
69912;SDS011;57198;52.082;5.108;2023-04-03T05:49:30;5.40;;;2.63;;
69912;SDS011;57198;52.082;5.108;2023-04-03T05:51:58;3.88;;;2.97;;
69912;SDS011;57198;52.082;5.108;2023-04-03T05:54:29;6.97;;;3.00;;
69912;SDS011;57198;52.082;5.108;2023-04-03T05:57:10;5.85;;;2.75;;
69912;SDS011;57198;52.082;5.108;2023-04-03T05:59:39;4.32;;;2.60;;
69912;SDS011;57198;52.082;5.108;2023-04-03T06:02:07;3.20;;;2.42;;
69912;SDS011;57198;52.082;5.108;2023-04-03T06:04:35;3.83;;;2.92;;
69912;SDS011;57198;52.082;5.108;2023-04-03T06:07:02;6.10;;;2.73;;
69912;SDS011;57198;52.082;5.108;2023-04-03T06:09:30;3.05;;;2.30;;
69912;SDS011;57198;52.082;5.108;2023-04-03T06:11:58;5.88;;;2.47;;
69912;SDS011;57198;52.082;5.108;2023-04-03T06:14:27;8.00;;;2.58;;
69912;SDS011;57198;52.082;5.108;2023-04-03T06:16:54;3.92;;;2.78;;
69912;SDS011;57198;52.082;5.108;2023-04-03T06:19:22;9.53;;;7.03;;
69912;SDS011;57198;52.082;5.108;2023-04-03T06:21:54;3.85;;;2.80;;
69912;SDS011;57198;52.082;5.108;2023-04-03T06:24:22;5.57;;;2.80;;
69912;SDS011;57198;52.082;5.108;2023-04-03T06:26:51;8.32;;;2.30;;
69912;SDS011;57198;52.082;5.108;2023-04-03T06:29:19;4.85;;;3.22;;
69912;SDS011;57198;52.082;5.108;2023-04-03T06:31:47;4.27;;;2.23;;
69912;SDS011;57198;52.082;5.108;2023-04-03T06:34:14;4.18;;;2.65;;
69912;SDS011;57198;52.082;5.108;2023-04-03T06:36:43;5.05;;;3.22;;
69912;SDS011;57198;52.082;5.108;2023-04-03T06:39:15;5.38;;;2.03;;
69912;SDS011;57198;52.082;5.108;2023-04-03T06:41:43;4.32;;;3.15;;
69912;SDS011;57198;52.082;5.108;2023-04-03T06:44:10;4.77;;;3.10;;
69912;SDS011;57198;52.082;5.108;2023-04-03T06:46:39;6.80;;;2.85;;
69912;SDS011;57198;52.082;5.108;2023-04-03T06:49:07;3.22;;;2.78;;
69912;SDS011;57198;52.082;5.108;2023-04-03T06:51:35;3.45;;;3.15;;
69912;SDS011;57198;52.082;5.108;2023-04-03T06:54:03;5.72;;;2.45;;
69912;SDS011;57198;52.082;5.108;2023-04-03T06:56:31;3.07;;;2.23;;
69912;SDS011;57198;52.082;5.108;2023-04-03T06:58:59;3.20;;;2.10;;
69912;SDS011;57198;52.082;5.108;2023-04-03T07:01:27;5.85;;;2.90;;
69912;SDS011;57198;52.082;5.108;2023-04-03T07:03:55;5.20;;;2.15;;
69912;SDS011;57198;52.082;5.108;2023-04-03T07:06:23;3.83;;;2.67;;
69912;SDS011;57198;52.082;5.108;2023-04-03T07:08:53;5.83;;;2.30;;
69912;SDS011;57198;52.082;5.108;2023-04-03T07:11:20;4.75;;;2.50;;
69912;SDS011;57198;52.082;5.108;2023-04-03T07:13:48;2.97;;;2.58;;
69912;SDS011;57198;52.082;5.108;2023-04-03T07:16:16;5.18;;;3.00;;
69912;SDS011;57198;52.082;5.108;2023-04-03T07:18:44;3.83;;;2.72;;
69912;SDS011;57198;52.082;5.108;2023-04-03T07:21:11;5.00;;;2.43;;
69912;SDS011;57198;52.082;5.108;2023-04-03T07:23:39;6.53;;;2.83;;
69912;SDS011;57198;52.082;5.108;2023-04-03T07:26:06;5.97;;;3.00;;
69912;SDS011;57198;52.082;5.108;2023-04-03T07:28:34;5.93;;;2.92;;
69912;SDS011;57198;52.082;5.108;2023-04-03T07:31:04;5.07;;;2.40;;
69912;SDS011;57198;52.082;5.108;2023-04-03T07:33:34;7.30;;;2.60;;
69912;SDS011;57198;52.082;5.108;2023-04-03T07:36:01;6.47;;;2.95;;
69912;SDS011;57198;52.082;5.108;2023-04-03T07:38:29;2.88;;;2.40;;
69912;SDS011;57198;52.082;5.108;2023-04-03T07:40:56;7.60;;;3.50;;
69912;SDS011;57198;52.082;5.108;2023-04-03T07:43:23;5.45;;;2.40;;
69912;SDS011;57198;52.082;5.108;2023-04-03T07:45:51;3.40;;;2.30;;
69912;SDS011;57198;52.082;5.108;2023-04-03T07:48:24;9.00;;;2.70;;
69912;SDS011;57198;52.082;5.108;2023-04-03T07:50:51;5.45;;;2.63;;
69912;SDS011;57198;52.082;5.108;2023-04-03T07:53:19;5.22;;;2.30;;
69912;SDS011;57198;52.082;5.108;2023-04-03T07:55:47;5.60;;;2.70;;
69912;SDS011;57198;52.082;5.108;2023-04-03T07:58:16;6.27;;;3.23;;
69912;SDS011;57198;52.082;5.108;2023-04-03T08:00:43;4.00;;;2.55;;
69912;SDS011;57198;52.082;5.108;2023-04-03T08:03:11;6.68;;;2.55;;
69912;SDS011;57198;52.082;5.108;2023-04-03T08:05:42;3.53;;;2.70;;
69912;SDS011;57198;52.082;5.108;2023-04-03T08:08:11;4.65;;;2.38;;
69912;SDS011;57198;52.082;5.108;2023-04-03T08:10:39;6.13;;;2.33;;
69912;SDS011;57198;52.082;5.108;2023-04-03T08:13:06;3.53;;;2.35;;
69912;SDS011;57198;52.082;5.108;2023-04-03T08:15:34;6.45;;;3.35;;
69912;SDS011;57198;52.082;5.108;2023-04-03T08:18:02;2.75;;;2.20;;
69912;SDS011;57198;52.082;5.108;2023-04-03T08:20:29;3.92;;;2.38;;
69912;SDS011;57198;52.082;5.108;2023-04-03T08:22:57;5.73;;;2.30;;
69912;SDS011;57198;52.082;5.108;2023-04-03T08:25:24;6.05;;;1.92;;
69912;SDS011;57198;52.082;5.108;2023-04-03T08:27:51;5.32;;;3.15;;
69912;SDS011;57198;52.082;5.108;2023-04-03T08:30:19;4.38;;;1.92;;
69912;SDS011;57198;52.082;5.108;2023-04-03T08:32:46;4.47;;;2.33;;
69912;SDS011;57198;52.082;5.108;2023-04-03T08:35:14;4.50;;;2.10;;
69912;SDS011;57198;52.082;5.108;2023-04-03T08:37:41;6.35;;;2.97;;
69912;SDS011;57198;52.082;5.108;2023-04-03T08:40:12;3.42;;;2.28;;
69912;SDS011;57198;52.082;5.108;2023-04-03T08:45:27;3.40;;;2.10;;
69912;SDS011;57198;52.082;5.108;2023-04-03T08:48:01;4.60;;;2.30;;
69912;SDS011;57198;52.082;5.108;2023-04-03T08:50:42;3.08;;;1.75;;
69912;SDS011;57198;52.082;5.108;2023-04-03T08:53:29;2.72;;;2.10;;
69912;SDS011;57198;52.082;5.108;2023-04-03T08:55:58;3.40;;;1.80;;
69912;SDS011;57198;52.082;5.108;2023-04-03T08:58:30;3.72;;;1.92;;
69912;SDS011;57198;52.082;5.108;2023-04-03T09:01:03;4.80;;;1.83;;
69912;SDS011;57198;52.082;5.108;2023-04-03T09:03:31;4.43;;;1.45;;
69912;SDS011;57198;52.082;5.108;2023-04-03T09:14:28;1.57;;;1.47;;
69912;SDS011;57198;52.082;5.108;2023-04-03T09:17:02;1.60;;;1.50;;
69912;SDS011;57198;52.082;5.108;2023-04-03T09:19:35;2.95;;;1.92;;
69912;SDS011;57198;52.082;5.108;2023-04-03T09:22:11;3.28;;;1.85;;
69912;SDS011;57198;52.082;5.108;2023-04-03T09:24:40;1.92;;;1.73;;
69912;SDS011;57198;52.082;5.108;2023-04-03T09:27:10;2.67;;;1.47;;
69912;SDS011;57198;52.082;5.108;2023-04-03T09:29:39;1.20;;;1.10;;
69912;SDS011;57198;52.082;5.108;2023-04-03T09:32:21;5.30;;;1.60;;
69912;SDS011;57198;52.082;5.108;2023-04-03T09:34:49;2.78;;;1.65;;
69912;SDS011;57198;52.082;5.108;2023-04-03T09:37:34;2.88;;;1.70;;
69912;SDS011;57198;52.082;5.108;2023-04-03T09:40:05;1.30;;;1.17;;
69912;SDS011;57198;52.082;5.108;2023-04-03T09:42:34;2.10;;;1.15;;
69912;SDS011;57198;52.082;5.108;2023-04-03T09:45:21;3.60;;;1.63;;
69912;SDS011;57198;52.082;5.108;2023-04-03T09:47:49;5.30;;;1.70;;
69912;SDS011;57198;52.082;5.108;2023-04-03T09:50:34;1.98;;;1.77;;
69912;SDS011;57198;52.082;5.108;2023-04-03T09:53:06;2.50;;;1.70;;
69912;SDS011;57198;52.082;5.108;2023-04-03T09:55:41;2.97;;;1.40;;
69912;SDS011;57198;52.082;5.108;2023-04-03T09:58:22;2.78;;;2.20;;
69912;SDS011;57198;52.082;5.108;2023-04-03T10:00:54;1.63;;;1.52;;
69912;SDS011;57198;52.082;5.108;2023-04-03T10:03:23;1.55;;;1.45;;
69912;SDS011;57198;52.082;5.108;2023-04-03T10:05:51;3.87;;;1.63;;
69912;SDS011;57198;52.082;5.108;2023-04-03T10:08:23;1.40;;;1.30;;
69912;SDS011;57198;52.082;5.108;2023-04-03T10:11:11;3.97;;;1.83;;
69912;SDS011;57198;52.082;5.108;2023-04-03T10:13:54;1.50;;;1.23;;
69912;SDS011;57198;52.082;5.108;2023-04-03T10:16:24;1.52;;;1.42;;
69912;SDS011;57198;52.082;5.108;2023-04-03T10:18:57;2.57;;;1.70;;
69912;SDS011;57198;52.082;5.108;2023-04-03T10:24:14;1.80;;;1.70;;
69912;SDS011;57198;52.082;5.108;2023-04-03T10:26:49;2.05;;;1.13;;
69912;SDS011;57198;52.082;5.108;2023-04-03T10:32:23;2.07;;;1.30;;
69912;SDS011;57198;52.082;5.108;2023-04-03T10:37:45;1.33;;;1.23;;
69912;SDS011;57198;52.082;5.108;2023-04-03T10:45:31;6.73;;;1.10;;
69912;SDS011;57198;52.082;5.108;2023-04-03T10:48:11;2.28;;;1.00;;
69912;SDS011;57198;52.082;5.108;2023-04-03T10:55:52;2.53;;;1.38;;
69912;SDS011;57198;52.082;5.108;2023-04-03T10:58:36;1.00;;;0.90;;
69912;SDS011;57198;52.082;5.108;2023-04-03T11:01:08;2.15;;;0.85;;
69912;SDS011;57198;52.082;5.108;2023-04-03T11:03:38;2.15;;;1.10;;
69912;SDS011;57198;52.082;5.108;2023-04-03T11:06:08;0.60;;;0.50;;
69912;SDS011;57198;52.082;5.108;2023-04-03T11:08:48;0.65;;;0.65;;
69912;SDS011;57198;52.082;5.108;2023-04-03T11:11:20;1.53;;;0.60;;
69912;SDS011;57198;52.082;5.108;2023-04-03T11:16:21;1.58;;;0.90;;
69912;SDS011;57198;52.082;5.108;2023-04-03T11:19:03;0.50;;;0.50;;
69912;SDS011;57198;52.082;5.108;2023-04-03T11:21:33;7.00;;;1.80;;
69912;SDS011;57198;52.082;5.108;2023-04-03T11:24:03;1.50;;;0.93;;
69912;SDS011;57198;52.082;5.108;2023-04-03T11:26:35;2.70;;;0.50;;
69912;SDS011;57198;52.082;5.108;2023-04-03T11:29:06;2.33;;;0.63;;
69912;SDS011;57198;52.082;5.108;2023-04-03T11:34:13;1.00;;;0.47;;
69912;SDS011;57198;52.082;5.108;2023-04-03T11:36:47;0.67;;;0.50;;
69912;SDS011;57198;52.082;5.108;2023-04-03T11:39:23;1.50;;;0.50;;
69912;SDS011;57198;52.082;5.108;2023-04-03T11:41:51;1.55;;;0.70;;
69912;SDS011;57198;52.082;5.108;2023-04-03T11:44:37;1.55;;;0.40;;
69912;SDS011;57198;52.082;5.108;2023-04-03T11:47:05;3.63;;;0.60;;
69912;SDS011;57198;52.082;5.108;2023-04-03T11:58:33;1.05;;;0.60;;
69912;SDS011;57198;52.082;5.108;2023-04-03T12:16:20;2.70;;;0.70;;
69912;SDS011;57198;52.082;5.108;2023-04-03T12:21:16;2.50;;;0.82;;
69912;SDS011;57198;52.082;5.108;2023-04-03T12:26:30;3.22;;;0.70;;
69912;SDS011;57198;52.082;5.108;2023-04-03T12:29:23;1.63;;;0.60;;
69912;SDS011;57198;52.082;5.108;2023-04-03T12:37:09;3.83;;;0.77;;
69912;SDS011;57198;52.082;5.108;2023-04-03T12:39:59;2.38;;;0.75;;
69912;SDS011;57198;52.082;5.108;2023-04-03T12:42:33;11.53;;;1.10;;
69912;SDS011;57198;52.082;5.108;2023-04-03T12:47:34;1.95;;;0.70;;
69912;SDS011;57198;52.082;5.108;2023-04-03T12:50:05;1.80;;;1.00;;
69912;SDS011;57198;52.082;5.108;2023-04-03T12:52:44;4.03;;;0.82;;
69912;SDS011;57198;52.082;5.108;2023-04-03T12:55:16;1.57;;;0.80;;
69912;SDS011;57198;52.082;5.108;2023-04-03T12:57:44;1.48;;;0.80;;
69912;SDS011;57198;52.082;5.108;2023-04-03T13:00:20;13.63;;;1.38;;
69912;SDS011;57198;52.082;5.108;2023-04-03T13:02:48;2.80;;;0.77;;
69912;SDS011;57198;52.082;5.108;2023-04-03T13:05:18;2.10;;;1.10;;
69912;SDS011;57198;52.082;5.108;2023-04-03T13:07:49;3.77;;;0.90;;
69912;SDS011;57198;52.082;5.108;2023-04-03T13:10:20;4.30;;;0.80;;
69912;SDS011;57198;52.082;5.108;2023-04-03T13:12:52;2.10;;;0.70;;
69912;SDS011;57198;52.082;5.108;2023-04-03T13:17:51;9.07;;;0.85;;
69912;SDS011;57198;52.082;5.108;2023-04-03T13:25:17;3.55;;;0.95;;
69912;SDS011;57198;52.082;5.108;2023-04-03T13:27:47;7.78;;;0.98;;
69912;SDS011;57198;52.082;5.108;2023-04-03T13:30:32;1.33;;;0.80;;
69912;SDS011;57198;52.082;5.108;2023-04-03T13:33:01;3.70;;;0.90;;
69912;SDS011;57198;52.082;5.108;2023-04-03T13:35:31;2.78;;;0.80;;
69912;SDS011;57198;52.082;5.108;2023-04-03T13:38:00;3.88;;;1.05;;
69912;SDS011;57198;52.082;5.108;2023-04-03T13:40:28;5.50;;;0.90;;
69912;SDS011;57198;52.082;5.108;2023-04-03T13:43:21;2.17;;;1.35;;
69912;SDS011;57198;52.082;5.108;2023-04-03T13:45:59;4.20;;;0.93;;
69912;SDS011;57198;52.082;5.108;2023-04-03T13:48:27;2.13;;;1.00;;
69912;SDS011;57198;52.082;5.108;2023-04-03T13:51:03;4.57;;;1.13;;
69912;SDS011;57198;52.082;5.108;2023-04-03T13:53:32;3.65;;;1.52;;
69912;SDS011;57198;52.082;5.108;2023-04-03T13:58:31;1.80;;;0.80;;
69912;SDS011;57198;52.082;5.108;2023-04-03T14:01:11;2.42;;;1.10;;
69912;SDS011;57198;52.082;5.108;2023-04-03T14:06:25;1.23;;;0.80;;
69912;SDS011;57198;52.082;5.108;2023-04-03T14:08:53;1.40;;;1.00;;
69912;SDS011;57198;52.082;5.108;2023-04-03T14:11:22;0.90;;;0.70;;
69912;SDS011;57198;52.082;5.108;2023-04-03T14:13:50;2.25;;;1.45;;
69912;SDS011;57198;52.082;5.108;2023-04-03T14:16:20;1.75;;;0.98;;
69912;SDS011;57198;52.082;5.108;2023-04-03T14:18:48;2.28;;;0.85;;
69912;SDS011;57198;52.082;5.108;2023-04-03T14:21:16;2.17;;;1.10;;
69912;SDS011;57198;52.082;5.108;2023-04-03T14:23:44;1.73;;;1.00;;
69912;SDS011;57198;52.082;5.108;2023-04-03T14:26:13;1.25;;;1.00;;
69912;SDS011;57198;52.082;5.108;2023-04-03T14:28:43;1.75;;;0.80;;
69912;SDS011;57198;52.082;5.108;2023-04-03T14:31:12;2.35;;;0.80;;
69912;SDS011;57198;52.082;5.108;2023-04-03T14:33:40;1.20;;;0.93;;
69912;SDS011;57198;52.082;5.108;2023-04-03T14:36:15;1.97;;;0.80;;
69912;SDS011;57198;52.082;5.108;2023-04-03T14:38:43;3.95;;;1.00;;
69912;SDS011;57198;52.082;5.108;2023-04-03T14:41:15;1.92;;;1.00;;
69912;SDS011;57198;52.082;5.108;2023-04-03T14:43:43;2.40;;;0.93;;
69912;SDS011;57198;52.082;5.108;2023-04-03T14:46:12;2.22;;;0.80;;
69912;SDS011;57198;52.082;5.108;2023-04-03T14:48:41;2.37;;;1.27;;
69912;SDS011;57198;52.082;5.108;2023-04-03T14:51:12;3.30;;;1.20;;
69912;SDS011;57198;52.082;5.108;2023-04-03T14:53:40;1.52;;;1.30;;
69912;SDS011;57198;52.082;5.108;2023-04-03T14:56:27;1.48;;;0.80;;
69912;SDS011;57198;52.082;5.108;2023-04-03T14:59:00;4.80;;;1.20;;
69912;SDS011;57198;52.082;5.108;2023-04-03T15:01:29;1.77;;;0.93;;
69912;SDS011;57198;52.082;5.108;2023-04-03T15:03:57;1.33;;;1.13;;
69912;SDS011;57198;52.082;5.108;2023-04-03T15:06:24;1.85;;;1.20;;
69912;SDS011;57198;52.082;5.108;2023-04-03T15:08:52;1.83;;;0.90;;
69912;SDS011;57198;52.082;5.108;2023-04-03T15:11:19;1.95;;;1.45;;
69912;SDS011;57198;52.082;5.108;2023-04-03T15:13:47;1.40;;;1.10;;
69912;SDS011;57198;52.082;5.108;2023-04-03T15:16:15;3.38;;;1.70;;
69912;SDS011;57198;52.082;5.108;2023-04-03T15:18:44;2.22;;;1.45;;
69912;SDS011;57198;52.082;5.108;2023-04-03T15:21:12;1.95;;;1.40;;
69912;SDS011;57198;52.082;5.108;2023-04-03T15:23:39;3.15;;;1.40;;
69912;SDS011;57198;52.082;5.108;2023-04-03T15:26:06;2.17;;;1.13;;
69912;SDS011;57198;52.082;5.108;2023-04-03T15:28:38;2.05;;;1.00;;
69912;SDS011;57198;52.082;5.108;2023-04-03T15:31:06;1.83;;;1.52;;
69912;SDS011;57198;52.082;5.108;2023-04-03T15:33:34;1.50;;;1.35;;
69912;SDS011;57198;52.082;5.108;2023-04-03T15:36:02;2.92;;;1.42;;
69912;SDS011;57198;52.082;5.108;2023-04-03T15:38:37;1.97;;;1.03;;
69912;SDS011;57198;52.082;5.108;2023-04-03T15:41:04;3.95;;;1.25;;
69912;SDS011;57198;52.082;5.108;2023-04-03T15:43:32;1.63;;;1.20;;
69912;SDS011;57198;52.082;5.108;2023-04-03T15:46:02;1.45;;;1.17;;
69912;SDS011;57198;52.082;5.108;2023-04-03T15:48:30;2.55;;;1.50;;
69912;SDS011;57198;52.082;5.108;2023-04-03T15:50:57;1.70;;;1.40;;
69912;SDS011;57198;52.082;5.108;2023-04-03T15:53:24;2.47;;;1.75;;
69912;SDS011;57198;52.082;5.108;2023-04-03T15:55:52;2.63;;;1.95;;
69912;SDS011;57198;52.082;5.108;2023-04-03T15:58:19;2.40;;;1.50;;
69912;SDS011;57198;52.082;5.108;2023-04-03T16:00:46;5.72;;;1.48;;
69912;SDS011;57198;52.082;5.108;2023-04-03T16:03:15;2.97;;;1.50;;
69912;SDS011;57198;52.082;5.108;2023-04-03T16:05:43;2.75;;;1.55;;
69912;SDS011;57198;52.082;5.108;2023-04-03T16:08:11;2.05;;;1.67;;
69912;SDS011;57198;52.082;5.108;2023-04-03T16:10:39;1.63;;;1.33;;
69912;SDS011;57198;52.082;5.108;2023-04-03T16:13:06;4.40;;;1.80;;
69912;SDS011;57198;52.082;5.108;2023-04-03T16:15:34;4.20;;;1.20;;
69912;SDS011;57198;52.082;5.108;2023-04-03T16:18:01;2.15;;;1.50;;
69912;SDS011;57198;52.082;5.108;2023-04-03T16:20:29;3.30;;;1.80;;
69912;SDS011;57198;52.082;5.108;2023-04-03T16:22:57;2.03;;;1.30;;
69912;SDS011;57198;52.082;5.108;2023-04-03T16:25:26;3.03;;;2.30;;
69912;SDS011;57198;52.082;5.108;2023-04-03T16:27:53;2.97;;;1.50;;
69912;SDS011;57198;52.082;5.108;2023-04-03T16:30:20;1.50;;;1.35;;
69912;SDS011;57198;52.082;5.108;2023-04-03T16:32:48;3.05;;;2.03;;